Time;durP1;ratioP1;P1;durP2;ratioP2;P2;SDS_P1;SDS_P2;PMS_P1;PMS_P2;Temp;Humidity;BMP_temperature;BMP_pressure;BME280_temperature;BME280_humidity;BME280_pressure;Samples;Min_cycle;Max_cycle;Signal;HPM_P1;HPM_P2
2023/01/16 00:01:50;;;;;;;;;;;;;;;3.56;77.36;99464.05;107528;1259;125202;-81
2023/01/16 00:04:17;;;;;;;;;;;;;;;3.59;77.25;99468.31;107827;1256;61314;-81
2023/01/16 00:06:44;;;;;;;;;;;;;;;3.60;77.26;99464.17;107713;1256;124339;-81
2023/01/16 00:09:13;;;;;;;;;;;;;;;3.58;77.14;99462.04;107917;1257;66746;-81
2023/01/16 00:11:41;;;;;;;;;;;;;;;3.59;77.18;99462.06;107784;1256;73266;-81
2023/01/16 00:14:40;;;;;;;;;;;;;;;3.57;77.12;99471.57;107252;1256;123637;-86
2023/01/16 00:17:07;;;;;;;;;;;;;;;3.56;77.08;99477.58;107243;1260;61321;-86
2023/01/16 00:19:36;;;;;;;;;;;;;;;3.52;77.09;99487.02;106929;1257;123983;-86
2023/01/16 00:22:04;;;;;;;;;;;;;;;3.51;77.02;99489.23;107282;1257;65524;-87
2023/01/16 00:24:33;;;;;;;;;;;;;;;3.48;77.07;99492.61;107424;1261;71356;-85
2023/01/16 00:27:01;;;;;;;;;;;;;;;3.47;77.12;99493.60;107864;1256;59965;-85
2023/01/16 00:29:28;;;;;;;;;;;;;;;3.46;77.14;99492.86;107558;1256;59301;-85
2023/01/16 00:31:55;;;;;;;;;;;;;;;3.43;77.25;99487.91;107346;1256;124242;-85
2023/01/16 00:34:23;;;;;;;;;;;;;;;3.42;77.12;99484.60;107506;1257;66131;-85
2023/01/16 00:36:56;;;;;;;;;;;;;;;3.42;77.22;99491.70;107020;1260;124424;-85
2023/01/16 00:39:29;;;;;;;;;;;;;;;3.41;77.12;99491.65;107151;1257;61387;-85
2023/01/16 00:42:05;;;;;;;;;;;;;;;3.41;77.18;99486.98;107042;1256;60459;-85
2023/01/16 00:44:43;;;;;;;;;;;;;;;3.40;77.17;99490.27;107168;1256;124299;-84
2023/01/16 00:47:19;;;;;;;;;;;;;;;3.40;77.20;99486.63;107122;1256;65734;-85
2023/01/16 00:49:53;;;;;;;;;;;;;;;3.39;77.12;99484.85;106997;1256;123674;-85
2023/01/16 00:52:23;;;;;;;;;;;;;;;3.37;77.17;99490.83;107031;1256;59568;-85
2023/01/16 00:54:50;;;;;;;;;;;;;;;3.31;77.07;99491.34;107001;1256;124393;-84
2023/01/16 00:57:19;;;;;;;;;;;;;;;3.32;77.08;99502.63;107252;1257;75323;-81
2023/01/16 00:59:46;;;;;;;;;;;;;;;3.29;77.20;99504.44;108827;1256;66313;-81
2023/01/16 01:02:14;;;;;;;;;;;;;;;3.26;77.03;99505.56;108823;1256;123769;-80
2023/01/16 01:04:41;;;;;;;;;;;;;;;3.23;77.20;99502.85;108001;1262;59341;-85
2023/01/16 01:07:09;;;;;;;;;;;;;;;3.19;77.12;99511.74;107077;1257;124108;-85
2023/01/16 01:09:36;;;;;;;;;;;;;;;3.16;77.15;99507.13;107468;1256;73065;-85
2023/01/16 01:12:04;;;;;;;;;;;;;;;3.14;77.38;99510.36;107437;1256;67015;-84
2023/01/16 01:14:32;;;;;;;;;;;;;;;3.14;77.15;99504.63;107211;1262;124788;-85
2023/01/16 01:16:59;;;;;;;;;;;;;;;3.14;77.20;99504.26;107510;1257;59318;-85
2023/01/16 01:19:32;;;;;;;;;;;;;;;3.13;77.31;99505.79;107160;1259;124385;-86
2023/01/16 01:21:59;;;;;;;;;;;;;;;3.11;77.30;99505.39;107285;1257;74668;-85
2023/01/16 01:24:26;;;;;;;;;;;;;;;3.09;77.36;99507.41;107177;1260;66346;-86
2023/01/16 01:26:54;;;;;;;;;;;;;;;3.11;77.39;99510.05;107450;1257;124292;-85
2023/01/16 01:29:22;;;;;;;;;;;;;;;3.10;77.30;99509.34;107500;1263;59570;-85
2023/01/16 01:31:49;;;;;;;;;;;;;;;3.10;77.34;99506.59;107450;1259;124352;-81
2023/01/16 01:34:16;;;;;;;;;;;;;;;3.04;77.41;99504.13;107879;1260;73373;-81
2023/01/16 01:36:43;;;;;;;;;;;;;;;3.07;77.49;99510.27;107854;1258;124484;-80
2023/01/16 01:39:12;;;;;;;;;;;;;;;3.06;77.41;99507.63;107523;1258;73209;-84
2023/01/16 01:41:39;;;;;;;;;;;;;;;3.08;77.46;99512.21;107263;1261;61329;-84
2023/01/16 01:44:25;;;;;;;;;;;;;;;3.07;77.47;99510.13;107225;1258;123602;-85
2023/01/16 01:47:00;;;;;;;;;;;;;;;3.05;77.40;99516.80;107136;1261;73386;-85
2023/01/16 01:49:28;;;;;;;;;;;;;;;3.04;77.45;99515.02;107320;1259;123682;-80
2023/01/16 01:51:55;;;;;;;;;;;;;;;3.01;77.47;99518.19;107524;1262;71508;-80
2023/01/16 01:54:33;;;;;;;;;;;;;;;2.97;77.46;99517.01;107656;1259;61150;-80
2023/01/16 01:57:02;;;;;;;;;;;;;;;2.93;77.45;99516.20;107975;1257;59706;-81
2023/01/16 01:59:33;;;;;;;;;;;;;;;2.90;77.58;99511.05;107553;1258;73723;-80
2023/01/16 02:02:03;;;;;;;;;;;;;;;2.87;77.57;99521.02;107371;1260;124301;-86
2023/01/16 02:04:31;;;;;;;;;;;;;;;2.85;77.50;99524.39;107614;1261;71434;-80
2023/01/16 02:07:01;;;;;;;;;;;;;;;2.83;77.65;99526.23;107258;1259;125000;-81
2023/01/16 02:09:28;;;;;;;;;;;;;;;2.85;77.68;99531.52;107289;1257;61578;-81
2023/01/16 02:11:56;;;;;;;;;;;;;;;2.88;77.81;99533.19;107644;1257;74722;-85
2023/01/16 02:14:30;;;;;;;;;;;;;;;2.89;77.79;99534.27;107597;1256;125139;-81
2023/01/16 02:20:08;;;;;;;;;;;;;;;2.89;77.67;99529.59;107450;1256;124457;-80
2023/01/16 02:22:43;;;;;;;;;;;;;;;2.92;77.72;99529.15;107498;1257;61360;-80
2023/01/16 02:25:13;;;;;;;;;;;;;;;2.91;77.64;99533.46;107761;1256;124947;-81
2023/01/16 02:27:55;;;;;;;;;;;;;;;2.92;77.78;99536.10;107692;1257;67095;-81
2023/01/16 02:30:28;;;;;;;;;;;;;;;2.91;77.63;99534.86;107874;1257;72197;-81
2023/01/16 02:32:54;;;;;;;;;;;;;;;2.92;77.81;99531.58;107891;1260;124180;-81
2023/01/16 02:35:34;;;;;;;;;;;;;;;2.90;77.57;99537.42;108858;1256;60053;-81
2023/01/16 02:38:10;;;;;;;;;;;;;;;2.88;77.85;99543.42;107351;1261;124512;-81
2023/01/16 02:40:40;;;;;;;;;;;;;;;2.91;77.70;99542.29;107627;1256;66983;-86
2023/01/16 02:43:08;;;;;;;;;;;;;;;2.90;77.80;99544.67;107534;1257;72719;-86
2023/01/16 02:45:54;;;;;;;;;;;;;;;2.87;77.60;99544.76;107536;1256;59740;-86
2023/01/16 02:48:29;;;;;;;;;;;;;;;2.83;77.57;99550.64;107578;1256;59568;-86
2023/01/16 02:51:03;;;;;;;;;;;;;;;2.78;77.68;99552.23;107709;1261;123561;-87
2023/01/16 02:53:52;;;;;;;;;;;;;;;2.76;77.70;99552.66;107257;1262;67363;-86
2023/01/16 02:56:41;;;;;;;;;;;;;;;2.73;77.74;99557.59;107112;1258;123701;-87
2023/01/16 02:59:09;;;;;;;;;;;;;;;2.69;77.77;99562.31;107171;1257;59940;-86
2023/01/16 03:01:40;;;;;;;;;;;;;;;2.67;77.85;99559.44;106906;1256;124380;-81
2023/01/16 03:04:25;;;;;;;;;;;;;;;2.66;77.89;99562.69;107853;1257;74361;-80
2023/01/16 03:06:56;;;;;;;;;;;;;;;2.66;78.02;99564.25;107739;1256;124966;-80
2023/01/16 03:09:34;;;;;;;;;;;;;;;2.65;77.95;99568.89;107761;1256;72702;-80
2023/01/16 03:12:09;;;;;;;;;;;;;;;2.62;78.01;99565.13;107589;1263;59402;-80
2023/01/16 03:14:38;;;;;;;;;;;;;;;2.59;77.89;99571.45;107481;1257;124636;-81
2023/01/16 03:17:19;;;;;;;;;;;;;;;2.58;77.95;99571.89;107466;1258;74681;-81
2023/01/16 03:19:49;;;;;;;;;;;;;;;2.55;77.92;99571.96;107670;1259;124388;-81
2023/01/16 03:22:17;;;;;;;;;;;;;;;2.53;78.00;99571.36;107739;1260;71445;-81
2023/01/16 03:24:52;;;;;;;;;;;;;;;2.49;77.98;99569.69;107456;1258;124852;-81
2023/01/16 03:27:31;;;;;;;;;;;;;;;2.49;78.13;99570.55;107685;1257;59593;-81
2023/01/16 03:30:15;;;;;;;;;;;;;;;2.49;77.98;99571.40;107490;1257;74051;-81
2023/01/16 03:32:43;;;;;;;;;;;;;;;2.49;78.04;99573.13;107458;1258;124398;-81
2023/01/16 03:35:16;;;;;;;;;;;;;;;2.46;77.97;99574.21;107832;1258;70747;-80
2023/01/16 03:37:47;;;;;;;;;;;;;;;2.44;78.08;99573.96;107647;1258;123383;-80
2023/01/16 03:40:16;;;;;;;;;;;;;;;2.42;78.28;99573.21;107327;1265;61133;-80
2023/01/16 03:42:53;;;;;;;;;;;;;;;2.43;78.16;99575.84;107357;1263;124495;-80
2023/01/16 03:45:26;;;;;;;;;;;;;;;2.42;78.19;99579.09;107595;1257;65767;-79
2023/01/16 03:47:55;;;;;;;;;;;;;;;2.42;78.29;99582.39;107523;1258;71400;-79
2023/01/16 03:50:22;;;;;;;;;;;;;;;2.41;78.24;99581.10;108080;1262;123979;-79
2023/01/16 03:52:51;;;;;;;;;;;;;;;2.39;78.26;99583.31;107785;1257;60523;-81
2023/01/16 03:55:31;;;;;;;;;;;;;;;2.39;78.34;99583.64;107747;1259;124920;-79
2023/01/16 03:58:02;;;;;;;;;;;;;;;2.40;78.46;99586.64;107876;1258;65785;-80
2023/01/16 04:00:31;;;;;;;;;;;;;;;2.39;78.43;99595.07;108664;1258;72407;-80
2023/01/16 04:03:08;;;;;;;;;;;;;;;2.38;78.62;99602.99;108676;1258;123589;-80
2023/01/16 04:05:42;;;;;;;;;;;;;;;2.36;78.59;99605.87;108695;1260;59389;-80
2023/01/16 04:08:10;;;;;;;;;;;;;;;2.36;78.52;99606.73;108213;1258;124456;-80
2023/01/16 04:10:38;;;;;;;;;;;;;;;2.33;78.39;99602.66;107290;1260;65776;-80
2023/01/16 04:13:05;;;;;;;;;;;;;;;2.31;78.49;99605.19;107241;1257;124651;-80
2023/01/16 04:15:33;;;;;;;;;;;;;;;2.28;78.50;99598.80;107438;1256;61440;-79
2023/01/16 04:18:00;;;;;;;;;;;;;;;2.23;78.52;99598.80;107648;1260;60467;-80
2023/01/16 04:20:27;;;;;;;;;;;;;;;2.20;78.49;99600.91;108546;1261;125216;-80
2023/01/16 04:22:55;;;;;;;;;;;;;;;2.18;78.59;99601.52;108032;1262;65672;-79
2023/01/16 04:25:22;;;;;;;;;;;;;;;2.15;78.70;99598.48;107742;1260;125048;-80
2023/01/16 04:27:49;;;;;;;;;;;;;;;2.12;78.58;99599.02;107719;1260;61301;-79
2023/01/16 04:30:18;;;;;;;;;;;;;;;2.10;78.72;99600.17;107598;1260;61201;-79
2023/01/16 04:32:46;;;;;;;;;;;;;;;2.07;78.81;99599.56;107534;1256;125044;-79
2023/01/16 04:35:13;;;;;;;;;;;;;;;2.04;78.59;99597.52;107653;1256;67026;-79
2023/01/16 04:37:41;;;;;;;;;;;;;;;2.02;78.86;99601.07;107339;1256;124654;-79
2023/01/16 04:40:09;;;;;;;;;;;;;;;2.01;78.74;99599.27;107494;1258;61164;-79
2023/01/16 04:42:36;;;;;;;;;;;;;;;1.96;79.03;99595.78;107417;1257;61270;-80
2023/01/16 04:45:03;;;;;;;;;;;;;;;1.94;78.93;99593.80;107394;1257;124118;-80
2023/01/16 04:47:30;;;;;;;;;;;;;;;1.92;78.85;99595.83;107772;1256;65774;-79
2023/01/16 04:49:59;;;;;;;;;;;;;;;1.89;78.85;99593.77;107333;1260;124652;-86
2023/01/16 04:52:26;;;;;;;;;;;;;;;1.86;79.02;99595.41;107550;1256;60554;-80
2023/01/16 04:54:53;;;;;;;;;;;;;;;1.85;79.05;99589.80;107739;1261;125168;-80
2023/01/16 04:57:20;;;;;;;;;;;;;;;1.82;79.04;99593.16;107545;1260;72621;-80
2023/01/16 04:59:48;;;;;;;;;;;;;;;1.81;79.36;99595.35;107489;1256;65941;-78
2023/01/16 05:02:16;;;;;;;;;;;;;;;1.80;79.20;99603.10;107775;1258;124562;-80
2023/01/16 05:04:43;;;;;;;;;;;;;;;1.79;79.33;99600.96;107707;1260;59545;-80
2023/01/16 05:07:10;;;;;;;;;;;;;;;1.75;79.20;99600.65;107515;1260;124320;-80
2023/01/16 05:09:37;;;;;;;;;;;;;;;1.71;79.27;99600.98;107472;1256;73256;-79
2023/01/16 05:12:04;;;;;;;;;;;;;;;1.67;79.24;99602.21;107731;1257;65511;-80
2023/01/16 05:14:31;;;;;;;;;;;;;;;1.63;79.30;99603.27;107693;1257;123880;-80
2023/01/16 05:16:58;;;;;;;;;;;;;;;1.59;79.44;99600.33;107904;1257;61395;-78
2023/01/16 05:19:25;;;;;;;;;;;;;;;1.57;79.53;99602.65;107993;1260;124051;-81
2023/01/16 05:21:52;;;;;;;;;;;;;;;1.54;79.63;99599.94;107509;1258;73849;-79
2023/01/16 05:24:19;;;;;;;;;;;;;;;1.52;79.82;99606.77;107490;1263;65985;-79
2023/01/16 05:26:46;;;;;;;;;;;;;;;1.50;79.79;99613.63;107703;1258;124555;-79
2023/01/16 05:29:13;;;;;;;;;;;;;;;1.49;79.85;99612.89;107874;1257;61133;-79
2023/01/16 05:31:39;;;;;;;;;;;;;;;1.49;79.93;99611.34;107676;1257;124820;-84
2023/01/16 05:34:07;;;;;;;;;;;;;;;1.50;79.90;99616.52;107799;1257;73390;-78
2023/01/16 05:36:34;;;;;;;;;;;;;;;1.51;80.06;99616.77;107916;1260;66869;-84
2023/01/16 05:39:01;;;;;;;;;;;;;;;1.54;80.08;99617.23;107594;1262;124790;-85
2023/01/16 05:41:28;;;;;;;;;;;;;;;1.56;80.24;99612.83;107231;1263;61272;-84
2023/01/16 05:43:55;;;;;;;;;;;;;;;1.57;80.17;99619.45;107220;1260;124682;-79
2023/01/16 05:46:32;;;;;;;;;;;;;;;1.58;80.35;99620.85;107450;1257;74608;-85
2023/01/16 05:49:07;;;;;;;;;;;;;;;1.60;80.18;99622.48;107140;1256;124901;-86
2023/01/16 05:51:34;;;;;;;;;;;;;;;1.61;80.26;99628.25;107323;1261;72874;-84
2023/01/16 05:54:10;;;;;;;;;;;;;;;1.62;80.20;99630.52;107187;1256;59962;-86
2023/01/16 05:56:37;;;;;;;;;;;;;;;1.61;80.27;99635.52;107334;1257;124282;-84
2023/01/16 05:59:11;;;;;;;;;;;;;;;1.61;80.28;99637.77;108019;1256;75097;-86
2023/01/16 06:01:38;;;;;;;;;;;;;;;1.61;80.24;99641.89;107648;1260;124950;-79
2023/01/16 06:04:19;;;;;;;;;;;;;;;1.60;80.38;99642.04;107541;1256;74737;-87
2023/01/16 06:06:46;;;;;;;;;;;;;;;1.60;80.35;99638.91;107379;1256;125426;-80
2023/01/16 06:09:13;;;;;;;;;;;;;;;1.61;80.29;99643.27;107424;1257;61154;-88
2023/01/16 06:11:47;;;;;;;;;;;;;;;1.63;80.26;99645.45;107293;1258;73417;-80
2023/01/16 06:14:15;;;;;;;;;;;;;;;1.66;80.38;99650.92;107152;1257;124275;-82
2023/01/16 06:16:48;;;;;;;;;;;;;;;1.71;80.62;99650.63;107298;1260;71142;-87
2023/01/16 06:19:15;;;;;;;;;;;;;;;1.76;80.60;99649.80;107416;1259;124588;-83
2023/01/16 06:21:43;;;;;;;;;;;;;;;1.78;80.55;99643.50;107630;1257;59484;-86
2023/01/16 06:24:12;;;;;;;;;;;;;;;1.78;80.32;99637.95;107482;1257;74691;-89
2023/01/16 06:26:39;;;;;;;;;;;;;;;1.78;80.42;99638.48;107066;1261;124358;-89
2023/01/16 06:29:05;;;;;;;;;;;;;;;1.79;80.23;99643.00;106959;1259;72701;-87
2023/01/16 06:31:42;;;;;;;;;;;;;;;1.80;80.44;99649.26;106968;1258;124503;-86
2023/01/16 06:34:09;;;;;;;;;;;;;;;1.83;80.50;99656.66;107087;1258;61282;-89
2023/01/16 06:36:36;;;;;;;;;;;;;;;1.88;80.67;99654.65;107013;1259;72682;-87
2023/01/16 06:39:10;;;;;;;;;;;;;;;1.95;80.60;99651.46;106938;1260;124159;-92
2023/01/16 06:41:52;;;;;;;;;;;;;;;1.98;80.62;99648.64;106941;1263;73437;-85
2023/01/16 06:44:19;;;;;;;;;;;;;;;1.96;80.35;99646.14;107324;1257;124326;-88
2023/01/16 06:46:58;;;;;;;;;;;;;;;1.94;80.37;99643.30;107306;1257;60079;-87
2023/01/16 06:49:32;;;;;;;;;;;;;;;1.91;80.47;99648.00;107000;1256;124550;-87
2023/01/16 06:52:00;;;;;;;;;;;;;;;1.88;80.15;99648.05;107296;1257;67001;-83
2023/01/16 06:54:28;;;;;;;;;;;;;;;1.81;80.19;99645.32;107408;1258;72751;-81
2023/01/16 06:56:55;;;;;;;;;;;;;;;1.79;80.09;99653.37;108776;1256;124312;-82
2023/01/16 06:59:22;;;;;;;;;;;;;;;1.73;80.04;99656.45;108343;1256;59292;-84
2023/01/16 07:01:50;;;;;;;;;;;;;;;1.70;80.20;99654.76;107371;1257;124299;-81
2023/01/16 07:04:17;;;;;;;;;;;;;;;1.67;80.22;99655.14;108007;1260;67015;-81
2023/01/16 07:06:49;;;;;;;;;;;;;;;1.66;80.30;99649.56;107598;1262;124972;-84
2023/01/16 07:09:28;;;;;;;;;;;;;;;1.63;80.27;99652.03;107278;1258;61276;-84
2023/01/16 07:12:08;;;;;;;;;;;;;;;1.61;80.34;99647.78;107202;1256;61310;-86
2023/01/16 07:23:00;;;;;;;;;;;;;;;1.53;80.52;99640.18;107192;1257;61244;-87
2023/01/16 07:25:36;;;;;;;;;;;;;;;1.56;80.69;99643.26;106942;1258;123577;-87
2023/01/16 07:28:03;;;;;;;;;;;;;;;1.60;80.66;99646.19;107324;1258;75546;-84
2023/01/16 07:30:36;;;;;;;;;;;;;;;1.62;80.69;99649.54;107572;1256;67020;-83
2023/01/16 07:33:09;;;;;;;;;;;;;;;1.61;80.66;99650.19;107464;1258;124005;-83
2023/01/16 07:35:36;;;;;;;;;;;;;;;1.59;80.53;99642.34;107368;1257;61368;-82
2023/01/16 07:38:10;;;;;;;;;;;;;;;1.59;80.45;99645.80;107272;1257;123763;-84
2023/01/16 07:40:37;;;;;;;;;;;;;;;1.58;80.59;99653.20;108553;1257;74752;-82
2023/01/16 07:43:04;;;;;;;;;;;;;;;1.58;80.55;99656.46;107357;1257;123849;-83
2023/01/16 07:45:31;;;;;;;;;;;;;;;1.59;80.78;99659.10;107284;1256;71363;-82
2023/01/16 07:48:00;;;;;;;;;;;;;;;1.60;80.72;99653.80;107461;1256;60790;-84
2023/01/16 07:50:28;;;;;;;;;;;;;;;1.61;80.70;99649.51;107234;1257;123764;-82
2023/01/16 07:52:56;;;;;;;;;;;;;;;1.65;80.81;99652.98;107285;1256;73322;-84
2023/01/16 07:55:25;;;;;;;;;;;;;;;1.69;80.85;99653.83;107235;1257;124313;-83
2023/01/16 07:57:53;;;;;;;;;;;;;;;1.75;81.20;99651.48;107328;1257;70998;-83
2023/01/16 08:00:28;;;;;;;;;;;;;;;1.80;81.03;99650.13;107324;1256;61154;-82
2023/01/16 08:02:55;;;;;;;;;;;;;;;1.80;80.88;99653.09;107333;1257;123738;-82
2023/01/16 08:05:27;;;;;;;;;;;;;;;1.79;80.89;99659.29;107020;1257;74342;-82
2023/01/16 08:08:25;;;;;;;;;;;;;;;1.79;80.67;99657.70;107285;1256;67112;-82
2023/01/16 08:10:56;;;;;;;;;;;;;;;1.84;80.80;99671.26;107057;1260;71256;-82
2023/01/16 08:13:40;;;;;;;;;;;;;;;1.87;80.71;99666.51;107161;1262;124586;-82
2023/01/16 08:16:22;;;;;;;;;;;;;;;1.90;80.63;99665.61;107494;1257;61253;-82
2023/01/16 08:19:30;;;;;;;;;;;;;;;1.93;80.71;99664.19;106834;1257;125136;-86
2023/01/16 08:25:35;;;;;;;;;;;;;;;2.09;80.79;99668.32;106936;1257;124518;-87
2023/01/16 08:34:48;;;;;;;;;;;;;;;2.22;80.52;99670.58;106915;1260;74449;-86
2023/01/16 08:40:48;;;;;;;;;;;;;;;2.24;80.36;99678.95;106883;1257;72508;-88
2023/01/16 08:53:09;;;;;;;;;;;;;;;2.24;80.38;99681.39;106862;1257;64884;-88
2023/01/16 08:56:15;;;;;;;;;;;;;;;2.24;80.41;99671.54;106649;1258;124573;-88
2023/01/16 08:58:55;;;;;;;;;;;;;;;2.29;80.30;99665.16;107034;1259;59806;-85
2023/01/16 09:01:44;;;;;;;;;;;;;;;2.33;80.36;99665.84;107145;1257;124810;-85
2023/01/16 09:04:30;;;;;;;;;;;;;;;2.39;80.32;99665.72;106958;1260;75375;-85
2023/01/16 09:07:06;;;;;;;;;;;;;;;2.46;80.47;99672.95;106815;1263;124796;-84
2023/01/16 09:09:49;;;;;;;;;;;;;;;2.54;80.58;99677.92;106766;1260;72171;-83
2023/01/16 09:15:37;;;;;;;;;;;;;;;2.68;80.31;99669.97;106662;1261;123890;-87
2023/01/16 09:18:06;;;;;;;;;;;;;;;2.76;80.61;99672.53;107064;1260;74607;-88
2023/01/16 09:20:44;;;;;;;;;;;;;;;2.87;80.45;99671.42;107068;1260;123779;-88
2023/01/16 09:23:38;;;;;;;;;;;;;;;2.97;80.44;99672.64;106655;1260;72521;-87
2023/01/16 09:26:28;;;;;;;;;;;;;;;3.09;80.28;99673.10;106830;1261;123755;-82
2023/01/16 09:29:12;;;;;;;;;;;;;;;3.20;80.25;99671.61;106983;1265;61234;-89
2023/01/16 09:31:52;;;;;;;;;;;;;;;3.30;80.13;99672.66;106822;1260;74978;-88
2023/01/16 09:38:03;;;;;;;;;;;;;;;3.44;79.80;99671.95;106951;1260;125208;-88
2023/01/16 09:40:30;;;;;;;;;;;;;;;3.53;79.85;99666.02;106828;1261;61196;-82
2023/01/16 09:45:49;;;;;;;;;;;;;;;3.69;79.70;99664.52;107149;1260;74712;-84
2023/01/16 09:48:55;;;;;;;;;;;;;;;3.73;79.49;99665.52;107240;1257;67248;-81
2023/01/16 09:51:36;;;;;;;;;;;;;;;3.79;79.54;99664.48;107232;1257;124205;-88
2023/01/16 10:00:37;;;;;;;;;;;;;;;3.94;79.09;99656.34;107341;1257;73170;-82
2023/01/16 10:03:11;;;;;;;;;;;;;;;3.97;78.99;99652.98;106977;1256;124278;-82
2023/01/16 10:05:58;;;;;;;;;;;;;;;4.00;78.84;99648.21;107091;1257;72671;-84
2023/01/16 10:08:48;;;;;;;;;;;;;;;4.03;78.67;99644.52;107091;1256;124347;-89
2023/01/16 10:11:18;;;;;;;;;;;;;;;4.05;78.65;99637.98;107078;1256;61375;-83
2023/01/16 10:14:13;;;;;;;;;;;;;;;4.10;78.61;99638.46;107263;1257;123819;-88
2023/01/16 10:17:41;;;;;;;;;;;;;;;;;;;;;
2023/01/16 10:20:48;;;;;;;;;;;;;;;4.25;78.54;99633.42;107033;1260;123686;-83
2023/01/16 10:30:28;;;;;;;;;;;;;;;4.43;78.21;99636.78;106873;1264;73835;-89
2023/01/16 10:33:07;;;;;;;;;;;;;;;4.52;78.29;99641.05;106796;1264;123691;-84
2023/01/16 10:35:45;;;;;;;;;;;;;;;;;;;;;
2023/01/16 10:38:56;;;;;;;;;;;;;;;4.72;78.11;99631.59;107200;1265;124143;-83
2023/01/16 10:50:22;;;;;;;;;;;;;;;4.96;77.51;99611.26;107221;1267;124595;-83
2023/01/16 10:52:49;;;;;;;;;;;;;;;5.07;77.49;99610.52;107283;1264;61570;-84
2023/01/16 10:55:16;;;;;;;;;;;;;;;5.15;77.23;99610.75;106946;1264;59427;-83
2023/01/16 10:57:52;;;;;;;;;;;;;;;5.17;77.07;99607.86;106939;1267;124923;-84
2023/01/16 11:00:24;;;;;;;;;;;;;;;5.16;76.99;99604.35;107017;1267;66825;-88
2023/01/16 11:02:52;;;;;;;;;;;;;;;5.19;76.90;99600.25;106969;1264;124928;-90
2023/01/16 11:05:29;;;;;;;;;;;;;;;5.19;76.82;99592.97;107082;1264;59341;-91
2023/01/16 11:08:12;;;;;;;;;;;;;;;5.21;76.78;99590.06;107086;1257;124839;-88
2023/01/16 11:11:02;;;;;;;;;;;;;;;5.22;76.68;99591.65;107419;1256;74925;-87
2023/01/16 11:20:29;;;;;;;;;;;;;;;5.12;76.32;99570.16;107046;1263;124441;-87
2023/01/16 11:23:05;;;;;;;;;;;;;;;5.04;76.23;99562.63;107148;1263;61343;-87
2023/01/16 11:25:32;;;;;;;;;;;;;;;4.97;76.21;99560.19;107102;1264;73356;-88
2023/01/16 11:28:06;;;;;;;;;;;;;;;4.92;76.22;99558.63;106936;1262;123485;-87
2023/01/16 11:30:49;;;;;;;;;;;;;;;;;;;;;
2023/01/16 11:33:21;;;;;;;;;;;;;;;4.85;76.32;99555.33;106840;1263;123647;-87
2023/01/16 11:36:04;;;;;;;;;;;;;;;4.81;76.20;99558.52;106781;1262;62832;-87
2023/01/16 11:38:46;;;;;;;;;;;;;;;4.76;76.30;99561.85;106561;1263;124292;-89
2023/01/16 11:41:27;;;;;;;;;;;;;;;4.73;76.27;99560.16;106767;1265;66938;-86
2023/01/16 11:47:29;;;;;;;;;;;;;;;4.69;76.37;99556.26;106580;1263;61197;-87
2023/01/16 11:53:35;;;;;;;;;;;;;;;4.62;76.41;99547.55;106683;1264;76073;-87
2023/01/16 11:56:17;;;;;;;;;;;;;;;4.62;76.42;99544.05;107338;1256;124838;-86
2023/01/16 11:59:09;;;;;;;;;;;;;;;4.61;76.29;99535.00;107588;1256;72681;-86
2023/01/16 12:02:15;;;;;;;;;;;;;;;4.63;76.38;99530.70;108142;1256;59820;-86
2023/01/16 12:04:26;;;;;;;;;;;;;;;4.67;76.48;99525.61;107923;1256;62033;-87
2023/01/16 12:07:07;;;;;;;;;;;;;;;4.73;76.44;99526.12;107488;1256;74729;-88
2023/01/16 12:09:38;;;;;;;;;;;;;;;4.78;76.41;99527.67;107424;1255;125000;-87
2023/01/16 12:15:21;;;;;;;;;;;;;;;4.94;76.46;99525.84;107777;1256;124393;-89
2023/01/16 12:18:19;;;;;;;;;;;;;;;5.03;76.43;99526.79;107327;1257;61385;-88
2023/01/16 12:20:56;;;;;;;;;;;;;;;5.12;76.35;99523.02;106880;1264;124727;-88
2023/01/16 12:23:38;;;;;;;;;;;;;;;5.19;76.19;99515.21;107168;1264;66369;-90
2023/01/16 12:26:10;;;;;;;;;;;;;;;5.25;76.11;99509.63;107013;1264;124441;-87
2023/01/16 12:28:44;;;;;;;;;;;;;;;5.28;76.04;99505.35;106768;1264;61324;-87
2023/01/16 12:34:10;;;;;;;;;;;;;;;5.35;75.97;99492.52;106610;1264;124144;-86
2023/01/16 12:36:42;;;;;;;;;;;;;;;5.37;75.84;99492.40;107142;1264;67259;-85
2023/01/16 12:39:25;;;;;;;;;;;;;;;5.37;75.74;99488.40;106639;1264;124209;-84
2023/01/16 12:44:50;;;;;;;;;;;;;;;5.32;75.58;99483.91;106961;1263;123920;-84
2023/01/16 12:50:38;;;;;;;;;;;;;;;5.24;75.56;99471.86;106581;1265;123813;-83
2023/01/16 12:53:24;;;;;;;;;;;;;;;5.19;75.51;99469.31;106725;1264;72732;-84
2023/01/16 12:55:55;;;;;;;;;;;;;;;5.13;75.69;99465.85;106956;1263;59472;-87
2023/01/16 12:58:22;;;;;;;;;;;;;;;5.13;75.61;99467.58;107456;1256;59336;-88
2023/01/16 13:01:00;;;;;;;;;;;;;;;5.10;75.69;99463.88;107060;1256;74920;-87
2023/01/16 13:03:34;;;;;;;;;;;;;;;5.10;75.62;99460.19;107134;1256;123661;-87
2023/01/16 13:06:02;;;;;;;;;;;;;;;5.11;75.78;99459.01;107125;1256;72879;-88
2023/01/16 13:08:51;;;;;;;;;;;;;;;5.15;75.75;99460.33;107038;1256;124133;-88
2023/01/16 13:14:19;;;;;;;;;;;;;;;5.12;75.59;99460.42;108156;1256;124541;-86
2023/01/16 13:17:19;;;;;;;;;;;;;;;5.16;75.64;99459.30;107401;1260;66978;-87
2023/01/16 13:19:57;;;;;;;;;;;;;;;5.19;75.68;99450.02;107318;1260;71306;-88
2023/01/16 13:22:36;;;;;;;;;;;;;;;5.21;75.72;99444.14;107325;1256;61085;-88
2023/01/16 13:25:16;;;;;;;;;;;;;;;5.21;75.63;99446.08;107453;1256;61290;-87
2023/01/16 13:27:58;;;;;;;;;;;;;;;5.19;75.57;99443.75;107243;1256;124470;-86
2023/01/16 13:30:31;;;;;;;;;;;;;;;5.20;75.67;99442.02;107252;1256;67748;-88
2023/01/16 13:33:12;;;;;;;;;;;;;;;5.20;75.60;99436.98;107241;1256;124440;-88
2023/01/16 13:36:01;;;;;;;;;;;;;;;5.19;75.56;99438.53;108365;1259;59668;-88
2023/01/16 13:38:46;;;;;;;;;;;;;;;5.18;75.60;99436.08;107221;1257;124598;-88
2023/01/16 13:41:36;;;;;;;;;;;;;;;5.19;75.64;99430.02;107163;1256;72443;-88
2023/01/16 13:47:18;;;;;;;;;;;;;;;5.14;75.64;99421.02;107658;1256;72858;-88
2023/01/16 13:49:52;;;;;;;;;;;;;;;5.09;75.65;99414.27;107080;1256;61267;-89
2023/01/16 13:52:28;;;;;;;;;;;;;;;5.01;75.58;99413.04;107194;1256;123623;-89
2023/01/16 13:55:06;;;;;;;;;;;;;;;4.95;75.69;99407.66;107278;1257;74784;-88
2023/01/16 13:57:53;;;;;;;;;;;;;;;4.89;75.68;99406.99;107446;1257;123709;-89
2023/01/16 14:04:09;;;;;;;;;;;;;;;4.67;75.69;99404.67;107274;1256;61328;-87
2023/01/16 14:06:43;;;;;;;;;;;;;;;4.55;75.83;99406.41;107251;1256;59638;-87
2023/01/16 14:09:23;;;;;;;;;;;;;;;4.44;75.89;99407.19;107153;1256;123755;-86
2023/01/16 14:12:00;;;;;;;;;;;;;;;4.35;75.97;99401.19;107226;1257;65569;-87
2023/01/16 14:17:57;;;;;;;;;;;;;;;4.19;76.31;99401.27;106942;1259;61256;-86
2023/01/16 14:20:43;;;;;;;;;;;;;;;4.10;76.37;99395.79;106848;1256;124715;-87
2023/01/16 14:26:16;;;;;;;;;;;;;;;3.86;76.53;99389.52;106931;1256;124520;-86
2023/01/16 14:28:46;;;;;;;;;;;;;;;3.74;76.49;99387.61;107153;1257;71388;-86
2023/01/16 14:31:45;;;;;;;;;;;;;;;3.65;76.70;99384.73;106945;1256;60737;-87
2023/01/16 14:34:19;;;;;;;;;;;;;;;3.57;76.81;99382.05;106884;1256;124433;-87
2023/01/16 14:36:48;;;;;;;;;;;;;;;3.49;76.93;99380.45;107022;1256;73403;-87
2023/01/16 14:39:43;;;;;;;;;;;;;;;3.43;76.89;99381.45;107111;1257;124766;-86
2023/01/16 14:57:21;;;;;;;;;;;;;;;2.96;77.42;99374.37;107114;1256;124818;-87
2023/01/16 15:00:09;;;;;;;;;;;;;;;2.88;77.59;99372.21;106841;1262;61385;-87
2023/01/16 15:02:37;;;;;;;;;;;;;;;2.83;77.60;99369.46;106913;1262;124436;-87
2023/01/16 15:05:49;;;;;;;;;;;;;;;2.78;77.59;99372.23;106658;1262;74873;-87
2023/01/16 15:08:31;;;;;;;;;;;;;;;2.71;77.77;99368.17;106636;1262;124940;-87
2023/01/16 15:22:48;;;;;;;;;;;;;;;2.63;78.47;99347.83;107223;1265;66815;-88
2023/01/16 15:25:33;;;;;;;;;;;;;;;2.64;78.53;99349.25;107009;1262;71404;-88
2023/01/16 15:28:11;;;;;;;;;;;;;;;2.64;78.50;99351.30;107079;1262;124004;-87
2023/01/16 15:31:01;;;;;;;;;;;;;;;2.63;78.75;99346.77;106775;1262;61388;-88
2023/01/16 15:33:45;;;;;;;;;;;;;;;2.60;78.47;99343.55;106709;1262;123596;-88
2023/01/16 15:36:22;;;;;;;;;;;;;;;2.54;78.57;99343.35;107037;1256;65511;-86
2023/01/16 15:48:11;;;;;;;;;;;;;;;2.17;78.78;99318.34;107240;1257;75054;-87